Flight Track Log - Related Links

Times and Time Zones

All times are in EDT time to prevent confusion due to time zone crossing. See the CSJ915 flight status page for this flight to view local times or setup timezone preferences in your user account.

Time Position Orientation Groundspeed Altitude Reporting Facility
EDT Latitude Longitude Course Direction KTS MPH feet Rate Location/Type
Tue 01:23:55 AM 43.1500 -79.9000 360° North 10 12 800  Level Toronto Center
Tue 01:24:55 AM 43.1667 -79.9000 360° North 10 12 800  Level Toronto Center
Tue 01:25:55 AM 43.1667 -79.9000 360° North 20 23 800  Level Toronto Center
Tue 01:29:55 AM 43.1667 -79.9000 180° South 30 35 800 260 Level Toronto Center
Tue 01:30:55 AM 43.1333 -79.9500 228° Southwest 110 127 2,100 1,200 Climbing Toronto Center
Tue 01:31:55 AM 43.1167 -79.9833 236° Southwest 120 138 3,200 950 Climbing Toronto Center
Tue 01:32:55 AM 43.0833 -80.0000 200° South 140 161 4,000 850 Climbing Toronto Center
Tue 01:33:55 AM 43.0500 -80.0167 200° South 140 161 4,900 850 Climbing Toronto Center
Tue 01:34:55 AM 43.0167 -80.0667 228° Southwest 130 150 5,700 750 Climbing Toronto Center
Tue 01:35:55 AM 43.0000 -80.0833 216° Southwest 130 150 6,400 650 Climbing Toronto Center
Tue 01:36:55 AM 42.9500 -80.1167 206° Southwest 140 161 7,000 650 Climbing Toronto Center
Tue 01:37:55 AM 42.9167 -80.1333 200° South 140 161 7,700 500 Climbing Toronto Center
Tue 01:38:55 AM 42.8833 -80.1500 200° South 150 173 8,000 150 Climbing Toronto Center
Tue 01:39:55 AM 42.8533 -80.1925 226° Southwest 165 190 8,000  Level Cleveland Center
Tue 01:40:55 AM 42.8119 -80.2208 207° Southwest 158 182 8,000  Level Cleveland Center
Tue 01:41:55 AM 42.7722 -80.2467 206° Southwest 158 182 8,000  Level Cleveland Center
Tue 01:42:55 AM 42.7350 -80.2722 207° Southwest 158 182 8,000 -50 Level Cleveland Center
Tue 01:43:55 AM 42.6975 -80.2950 204° Southwest 158 182 7,900  Descending Cleveland Center
Tue 01:44:55 AM 42.6581 -80.3233 208° Southwest 158 182 8,000 50 Climbing Cleveland Center
Tue 01:45:55 AM 42.6183 -80.3492 206° Southwest 158 182 8,000 -50 Level Cleveland Center
Tue 01:46:55 AM 42.5789 -80.3772 208° Southwest 158 182 7,900 -50 Descending Cleveland Center
Tue 01:47:55 AM 42.5392 -80.4086 210° Southwest 163 188 7,900 50 Level Cleveland Center
Tue 01:48:55 AM 42.4975 -80.4367 206° Southwest 158 182 8,000 50 Climbing Cleveland Center
Tue 01:49:55 AM 42.4561 -80.4650 207° Southwest 158 182 8,000  Level Cleveland Center
Tue 01:50:55 AM 42.4164 -80.4903 205° Southwest 158 182 8,000 -50 Level Cleveland Center
Tue 01:51:55 AM 42.3769 -80.5158 206° Southwest 158 182 7,900  Descending Cleveland Center
Tue 01:52:55 AM 42.3353 -80.5439 206° Southwest 158 182 8,000 50 Climbing Cleveland Center
Tue 01:53:55 AM 42.2956 -80.5719 208° Southwest 158 182 8,000  Level Cleveland Center
Tue 01:54:55 AM 42.2558 -80.5972 205° Southwest 158 182 8,000  Level Cleveland Center
Tue 01:55:55 AM 42.2142 -80.6225 204° Southwest 158 182 8,000  Level Cleveland Center
Tue 01:56:55 AM 42.1747 -80.6503 208° Southwest 158 182 8,000  Level Cleveland Center
Tue 01:57:55 AM 42.1414 -80.6756 209° Southwest 158 182 8,000  Level Cleveland Center
Tue 01:58:55 AM 42.0953 -80.7008 202° Southwest 158 182 8,000  Level Cleveland Center
Tue 01:59:55 AM 42.0578 -80.7258 206° Southwest 158 182 8,000  Level Cleveland Center
Tue 02:00:55 AM 42.0183 -80.7508 205° Southwest 158 182 8,000  Level Cleveland Center
Tue 02:01:55 AM 41.9786 -80.7786 207° Southwest 158 182 8,000  Level Cleveland Center
Tue 02:02:55 AM 41.9389 -80.8036 205° Southwest 158 182 8,000 50 Level Cleveland Center
Tue 02:03:55 AM 41.8950 -80.8342 207° Southwest 158 182 8,100  Climbing Cleveland Center
Tue 02:04:55 AM 41.8553 -80.8592 205° Southwest 158 182 8,000  Descending Cleveland Center
Tue 02:05:55 AM 41.8158 -80.8842 205° Southwest 158 182 8,100 50 Climbing Cleveland Center
Tue 02:06:55 AM 41.7739 -80.9117 206° Southwest 158 182 8,100  Level Cleveland Center
Tue 02:07:55 AM 41.7364 -80.9367 206° Southwest 158 182 8,100  Level Cleveland Center
Tue 02:08:55 AM 41.6967 -80.9614 205° Southwest 158 182 8,100  Level Cleveland Center
Tue 02:09:55 AM 41.6550 -80.9861 204° Southwest 158 182 8,100  Level Cleveland Center
Tue 02:10:55 AM 41.6172 -81.0136 209° Southwest 158 182 8,100  Level Cleveland Center
Tue 02:11:55 AM 41.5775 -81.0383 205° Southwest 158 182 8,100 -300 Level Cleveland Center
Tue 02:12:55 AM 41.5400 -81.0658 209° Southwest 158 182 7,500 -700 Descending Cleveland Center
Tue 02:13:55 AM 41.4939 -81.0961 206° Southwest 167 192 6,700 -700 Descending Cleveland Center
Tue 02:14:55 AM 41.4481 -81.1150 197° South 173 199 6,100 -700 Descending Cleveland Center
Tue 02:15:55 AM 41.4083 -81.1450 210° Southwest 173 199 5,300 -800 Descending Cleveland Center
Tue 02:16:55 AM 41.3644 -81.1725 205° Southwest 173 199 4,500 -700 Descending Cleveland Center
Tue 02:17:55 AM 41.3225 -81.1997 206° Southwest 173 199 3,900 -550 Descending Cleveland Center
Tue 02:18:55 AM 41.2786 -81.2325 209° Southwest 173 199 3,400 -350 Descending Cleveland Center
Tue 02:19:55 AM 41.2347 -81.2514 198° South 173 199 3,200 -200 Descending Cleveland Center
Tue 02:20:55 AM 41.1950 -81.2731 202° Southwest 167 192 3,000 -100 Descending Cleveland Center
Tue 02:21:55 AM 41.1531 -81.2947 201° Southwest 167 192 3,000  Level Cleveland Center
Tue 02:22:55 AM 41.1156 -81.3161 203° Southwest 167 192 3,000  Level Cleveland Center
Tue 02:23:55 AM 41.0756 -81.3378 202° Southwest 162 186 3,000 -100 Level Cleveland Center
Tue 02:24:55 AM 41.0339 -81.3650 206° Southwest 162 186 2,800 -250 Descending Cleveland Center
Tue 02:25:55 AM 40.9983 -81.3836 202° Southwest 156 180 2,500 -250 Descending Cleveland Center
Tue 02:26:55 AM 40.9564 -81.3997 196° South 156 180 2,300 -500 Descending Cleveland Center
Tue 02:27:55 AM 40.9269 -81.4267 215° Southwest 144 166 1,500 -450 Descending Cleveland Center
Tue 02:28:55 AM 40.8914 -81.4539 210° Southwest 136 157 1,400 -100 Descending Cleveland Center

Login

Don't have an account? Register now (free) for customized features, flight alerts, and more!